Time;durP1;ratioP1;P1;durP2;ratioP2;P2;SDS_P1;SDS_P2;PMS_P1;PMS_P2;Temp;Humidity;BMP_temperature;BMP_pressure;BME280_temperature;BME280_humidity;BME280_pressure;Samples;Min_cycle;Max_cycle;Signal;HPM_P1;HPM_P2
2022/07/23 06:16:57;;;;;;;;;;;25.30;70.80;;;;;;5059846;27;2225007;-96
2022/07/23 06:19:22;;;;;;;;;;;25.70;68.20;;;;;;5158278;27;19949;-96
2022/07/23 06:21:48;;;;;;;;;;;26.00;67.70;;;;;;5142263;27;19940;-96
2022/07/23 06:26:06;;;;;;;;;;;26.30;67.10;;;;;;5139272;27;19950;-96
2022/07/23 06:28:32;;;;;;;;;;;26.50;65.80;;;;;;5136140;28;19989;-96
2022/07/23 06:30:58;;;;;;;;;;;26.70;64.90;;;;;;5120097;28;19945;-96
2022/07/23 06:33:23;;;;;;;;;;;26.80;63.90;;;;;;5138621;28;19938;-96
2022/07/23 06:35:49;;;;;;;;;;;26.90;63.70;;;;;;5139099;28;19976;-96
2022/07/23 06:38:15;;;;;;;;;;;27.10;63.40;;;;;;5120093;28;19948;-96
2022/07/23 06:40:40;;;;;;;;;;;27.20;63.30;;;;;;5119767;28;20390;-96
2022/07/23 06:43:06;;;;;;;;;;;27.30;63.10;;;;;;5136117;28;20294;-96
2022/07/23 06:45:31;;;;;;;;;;;27.50;62.00;;;;;;5134030;28;20333;-96
2022/07/23 06:47:57;;;;;;;;;;;27.50;61.90;;;;;;5134220;28;19981;-96
2022/07/23 06:50:23;;;;;;;;;;;27.70;61.70;;;;;;5134509;28;19952;-96
2022/07/23 06:52:48;;;;;;;;;;;27.70;61.50;;;;;;5116025;28;20043;-96
2022/07/23 06:55:14;;;;;;;;;;;27.80;60.90;;;;;;5135419;28;19951;-96
2022/07/23 06:57:39;;;;;;;;;;;27.90;60.50;;;;;;5116070;28;19940;-96
2022/07/23 07:00:05;;;;;;;;;;;28.00;60.10;;;;;;5115045;28;19950;-96
2022/07/23 07:02:31;;;;;;;;;;;28.00;59.70;;;;;;5133942;28;19943;-96
2022/07/23 07:04:57;;;;;;;;;;;28.20;60.00;;;;;;5135055;28;20003;-96
2022/07/23 07:07:22;;;;;;;;;;;28.20;58.80;;;;;;5135377;28;20387;-96
2022/07/23 07:09:48;;;;;;;;;;;28.40;58.20;;;;;;5135780;28;19940;-96
2022/07/23 07:12:14;;;;;;;;;;;28.50;58.10;;;;;;5140882;28;19942;-96
2022/07/23 07:14:39;;;;;;;;;;;28.60;57.70;;;;;;5141353;28;20312;-96
2022/07/23 07:17:05;;;;;;;;;;;28.70;56.80;;;;;;5143648;28;19953;-96
2022/07/23 07:19:31;;;;;;;;;;;28.70;56.90;;;;;;5125026;28;19949;-96
2022/07/23 07:21:57;;;;;;;;;;;28.80;56.60;;;;;;5141834;28;19942;-96
2022/07/23 07:24:23;;;;;;;;;;;28.80;55.20;;;;;;5124646;28;20026;-96
2022/07/23 07:26:48;;;;;;;;;;;29.00;55.30;;;;;;5125895;28;19952;-96
2022/07/23 07:29:15;;;;;;;;;;;29.10;55.70;;;;;;5128346;28;19945;-96
2022/07/23 07:31:41;;;;;;;;;;;29.20;54.70;;;;;;5129791;28;19955;-96
2022/07/23 07:34:08;;;;;;;;;;;29.20;55.80;;;;;;5149894;28;19932;-96
2022/07/23 07:36:36;;;;;;;;;;;29.20;55.90;;;;;;5141822;28;19963;-96
2022/07/23 07:39:10;;;;;;;;;;;29.30;57.30;;;;;;5118306;28;19946;-96
2022/07/23 07:41:36;;;;;;;;;;;29.40;56.40;;;;;;5116439;28;19955;-96
2022/07/23 07:44:05;;;;;;;;;;;29.50;55.60;;;;;;5117599;28;19991;-96
2022/07/23 07:46:31;;;;;;;;;;;29.50;54.30;;;;;;5116177;28;19946;-96
2022/07/23 07:48:57;;;;;;;;;;;29.70;53.50;;;;;;5116510;28;19966;-96
2022/07/23 07:51:22;;;;;;;;;;;29.70;53.90;;;;;;5135324;28;19948;-96
2022/07/23 07:53:52;;;;;;;;;;;29.80;54.80;;;;;;5116229;28;19939;-96
2022/07/23 07:56:18;;;;;;;;;;;30.00;54.60;;;;;;5096005;28;19945;-96
2022/07/23 07:58:45;;;;;;;;;;;30.20;53.60;;;;;;5095838;28;19926;-96
2022/07/23 08:01:12;;;;;;;;;;;30.20;53.90;;;;;;5099535;28;20030;-96
2022/07/23 08:03:48;;;;;;;;;;;30.20;52.00;;;;;;5098769;28;19990;-96
2022/07/23 08:06:14;;;;;;;;;;;30.40;51.70;;;;;;5099411;28;19959;-96
2022/07/23 08:08:40;;;;;;;;;;;30.50;51.80;;;;;;5099619;28;19945;-96
2022/07/23 08:11:07;;;;;;;;;;;30.60;51.20;;;;;;5099149;28;19988;-96
2022/07/23 08:13:34;;;;;;;;;;;30.60;50.70;;;;;;5099925;28;19953;-96
2022/07/23 08:16:01;;;;;;;;;;;30.60;49.40;;;;;;5099503;28;19942;-96
2022/07/23 08:18:30;;;;;;;;;;;30.60;49.10;;;;;;5117334;28;20011;-96
2022/07/23 08:21:00;;;;;;;;;;;30.70;49.80;;;;;;5118293;28;19938;-96
2022/07/23 08:23:29;;;;;;;;;;;30.80;50.90;;;;;;5100307;28;19983;-96
2022/07/23 08:25:59;;;;;;;;;;;30.90;50.50;;;;;;5095570;28;19985;-96
2022/07/23 08:28:26;;;;;;;;;;;31.00;48.90;;;;;;5095891;28;19957;-96
2022/07/23 08:30:53;;;;;;;;;;;31.20;48.20;;;;;;5096494;28;19929;-97
2022/07/23 08:33:22;;;;;;;;;;;31.20;47.50;;;;;;5096552;28;19945;-96
2022/07/23 08:35:51;;;;;;;;;;;31.40;46.60;;;;;;5096344;28;20034;-96
2022/07/23 08:38:18;;;;;;;;;;;31.40;47.30;;;;;;5079872;28;20014;-96
2022/07/23 08:40:51;;;;;;;;;;;31.50;48.70;;;;;;5096085;28;19952;-97
2022/07/23 08:43:19;;;;;;;;;;;31.60;45.30;;;;;;5095951;28;19943;-96
2022/07/23 08:45:46;;;;;;;;;;;31.60;45.60;;;;;;5093676;28;19946;-96
2022/07/23 08:48:27;;;;;;;;;;;31.70;48.60;;;;;;5096941;28;19938;-96
2022/07/23 08:51:22;;;;;;;;;;;31.70;47.50;;;;;;5099837;28;19967;-97
2022/07/23 08:53:54;;;;;;;;;;;31.70;46.80;;;;;;5094114;28;19944;-96
2022/07/23 08:56:21;;;;;;;;;;;31.80;45.90;;;;;;5096891;28;20021;-96
2022/07/23 08:58:49;;;;;;;;;;;31.80;44.90;;;;;;5097389;28;19961;-96
2022/07/23 09:01:17;;;;;;;;;;;31.80;44.90;;;;;;5098028;28;19979;-96
2022/07/23 09:03:45;;;;;;;;;;;31.90;45.40;;;;;;5096804;28;19992;-96
2022/07/23 09:06:14;;;;;;;;;;;32.00;45.50;;;;;;5097274;28;19970;-96
2022/07/23 09:08:48;;;;;;;;;;;32.00;45.80;;;;;;5097188;28;20375;-96
2022/07/23 09:11:28;;;;;;;;;;;32.10;45.00;;;;;;5097333;28;19953;-96
2022/07/23 09:14:01;;;;;;;;;;;32.20;45.50;;;;;;5080966;28;19933;-96
2022/07/23 09:16:34;;;;;;;;;;;32.20;46.90;;;;;;5080825;28;19946;-96
2022/07/23 09:19:06;;;;;;;;;;;32.20;45.40;;;;;;5097591;28;19947;-97
2022/07/23 09:21:34;;;;;;;;;;;32.20;40.70;;;;;;5095154;28;19967;-97
2022/07/23 09:24:02;;;;;;;;;;;32.30;42.50;;;;;;5094715;28;19967;-96
2022/07/23 09:26:39;;;;;;;;;;;32.30;42.70;;;;;;5096331;28;19933;-96
2022/07/23 09:29:24;;;;;;;;;;;32.40;46.70;;;;;;5096269;28;19979;-96
2022/07/23 09:32:02;;;;;;;;;;;32.30;42.30;;;;;;5097017;28;19946;-98
2022/07/23 09:34:30;;;;;;;;;;;32.40;41.30;;;;;;5096592;28;19944;-96
2022/07/23 09:37:10;;;;;;;;;;;32.50;41.90;;;;;;5097365;28;19974;-97
2022/07/23 09:39:37;;;;;;;;;;;32.70;44.00;;;;;;5098332;28;19954;-97
2022/07/23 09:42:17;;;;;;;;;;;32.80;43.00;;;;;;5096588;28;19941;-96
2022/07/23 09:44:54;;;;;;;;;;;32.90;39.60;;;;;;5099019;28;19943;-96
2022/07/23 09:47:34;;;;;;;;;;;33.10;41.60;;;;;;5117339;28;19963;-96
2022/07/23 09:50:15;;;;;;;;;;;33.20;39.90;;;;;;5100438;28;19951;-96
2022/07/23 09:52:47;;;;;;;;;;;33.30;39.10;;;;;;5099790;28;19946;-96
2022/07/23 09:55:14;;;;;;;;;;;33.30;38.80;;;;;;5099642;28;20019;-96
2022/07/23 09:57:44;;;;;;;;;;;33.40;39.40;;;;;;5098789;28;19988;-96
2022/07/23 10:00:11;;;;;;;;;;;33.50;39.50;;;;;;5099121;28;19988;-97
2022/07/23 10:02:38;;;;;;;;;;;33.60;38.20;;;;;;5098627;28;19944;-97
2022/07/23 10:05:05;;;;;;;;;;;33.70;38.20;;;;;;5114881;28;20050;-96
2022/07/23 10:07:40;;;;;;;;;;;33.70;38.20;;;;;;5113334;28;19957;-96
2022/07/23 10:10:07;;;;;;;;;;;33.90;40.30;;;;;;5114022;28;19958;-96
2022/07/23 10:15:07;;;;;;;;;;;34.00;37.20;;;;;;5112179;28;19935;-96
2022/07/23 10:17:36;;;;;;;;;;;34.10;36.80;;;;;;5090322;28;20404;-96
2022/07/23 10:20:03;;;;;;;;;;;34.20;37.10;;;;;;5089127;28;19935;-96
2022/07/23 10:22:32;;;;;;;;;;;34.20;36.60;;;;;;5090718;28;19992;-96
2022/07/23 10:24:58;;;;;;;;;;;34.30;38.50;;;;;;5089257;28;20021;-96
2022/07/23 10:27:24;;;;;;;;;;;34.40;37.50;;;;;;5091365;28;19943;-96
2022/07/23 10:29:51;;;;;;;;;;;34.60;37.50;;;;;;5091592;28;19944;-96
2022/07/23 10:32:24;;;;;;;;;;;34.70;39.80;;;;;;5091919;28;20012;-96
2022/07/23 10:34:55;;;;;;;;;;;34.70;34.70;;;;;;5088898;28;19958;-96
2022/07/23 10:37:33;;;;;;;;;;;34.80;35.30;;;;;;5089798;28;19952;-96
2022/07/23 10:40:12;;;;;;;;;;;34.80;33.10;;;;;;5088845;28;19939;-96
2022/07/23 10:42:38;;;;;;;;;;;34.90;33.70;;;;;;5088241;28;20378;-96
2022/07/23 10:45:23;;;;;;;;;;;35.10;36.00;;;;;;5088877;28;19935;-97
2022/07/23 10:47:48;;;;;;;;;;;35.20;33.50;;;;;;5087446;28;19942;-96
2022/07/23 10:50:25;;;;;;;;;;;35.40;32.90;;;;;;5089437;28;19958;-96
2022/07/23 10:53:20;;;;;;;;;;;35.60;32.90;;;;;;5088904;28;19959;-96
2022/07/23 10:55:47;;;;;;;;;;;35.70;30.30;;;;;;5087863;28;19978;-96
2022/07/23 10:58:18;;;;;;;;;;;35.80;32.40;;;;;;5086389;28;19957;-96
2022/07/23 11:00:43;;;;;;;;;;;35.90;33.90;;;;;;5087426;28;19986;-96
2022/07/23 11:03:32;;;;;;;;;;;36.00;31.10;;;;;;5085755;28;19940;-96
2022/07/23 11:05:59;;;;;;;;;;;36.00;32.00;;;;;;5086292;28;19988;-96
2022/07/23 11:08:25;;;;;;;;;;;36.10;31.30;;;;;;5088173;28;19954;-97
2022/07/23 11:10:52;;;;;;;;;;;36.20;32.20;;;;;;5088647;28;19941;-96
2022/07/23 11:13:21;;;;;;;;;;;36.30;33.00;;;;;;5090871;28;20029;-96
2022/07/23 11:16:08;;;;;;;;;;;36.50;32.40;;;;;;5093193;28;19959;-96
2022/07/23 11:18:43;;;;;;;;;;;36.70;31.00;;;;;;5092124;28;19940;-96
2022/07/23 11:21:29;;;;;;;;;;;36.70;32.60;;;;;;5093144;28;19951;-96
2022/07/23 11:23:59;;;;;;;;;;;37.00;31.70;;;;;;5093755;28;19941;-96
2022/07/23 11:26:43;;;;;;;;;;;37.20;29.80;;;;;;5095069;28;19935;-97
2022/07/23 11:29:37;;;;;;;;;;;37.50;30.00;;;;;;5092586;28;19973;-96
2022/07/23 11:32:04;;;;;;;;;;;37.70;30.00;;;;;;5093656;28;19967;-96
2022/07/23 11:34:32;;;;;;;;;;;37.60;28.10;;;;;;5094779;28;19963;-96
2022/07/23 11:36:59;;;;;;;;;;;37.30;28.50;;;;;;5094862;28;19963;-96
2022/07/23 11:39:26;;;;;;;;;;;37.10;27.80;;;;;;5093930;28;19962;-96
2022/07/23 11:41:52;;;;;;;;;;;36.90;28.20;;;;;;5096437;28;19923;-96
2022/07/23 11:44:31;;;;;;;;;;;36.90;27.60;;;;;;5095334;28;19940;-96
2022/07/23 11:46:58;;;;;;;;;;;36.90;28.80;;;;;;5094243;28;20331;-96
2022/07/23 11:49:25;;;;;;;;;;;37.00;29.60;;;;;;5089699;28;19941;-96
2022/07/23 11:52:06;;;;;;;;;;;37.10;29.20;;;;;;5089410;28;19951;-96
2022/07/23 11:54:33;;;;;;;;;;;37.20;29.40;;;;;;5087802;28;19964;-96
2022/07/23 11:56:59;;;;;;;;;;;37.40;28.30;;;;;;5089738;28;19941;-96
2022/07/23 11:59:30;;;;;;;;;;;37.70;29.00;;;;;;5091806;28;19940;-96
2022/07/23 12:02:04;;;;;;;;;;;37.80;27.50;;;;;;5094262;28;19956;-96
2022/07/23 12:04:40;;;;;;;;;;;37.90;26.60;;;;;;5092655;28;20469;-96
2022/07/23 12:07:24;;;;;;;;;;;37.80;27.50;;;;;;5092224;28;20182;-96
2022/07/23 12:09:50;;;;;;;;;;;37.70;27.70;;;;;;5092351;28;19939;-96
2022/07/23 12:12:18;;;;;;;;;;;37.90;26.60;;;;;;5091641;28;19946;-96
2022/07/23 12:14:51;;;;;;;;;;;38.20;26.90;;;;;;5093016;28;19966;-96
2022/07/23 12:17:18;;;;;;;;;;;38.60;26.30;;;;;;5094477;28;19991;-96
2022/07/23 12:19:44;;;;;;;;;;;38.60;25.80;;;;;;5093503;28;19972;-96
2022/07/23 12:22:10;;;;;;;;;;;38.70;26.40;;;;;;5094511;28;19959;-96
2022/07/23 12:24:55;;;;;;;;;;;39.10;25.30;;;;;;5094471;28;20016;-96
2022/07/23 12:27:21;;;;;;;;;;;39.10;23.80;;;;;;5094607;28;19962;-96
2022/07/23 12:29:48;;;;;;;;;;;39.10;24.20;;;;;;5091491;28;20038;-96
2022/07/23 12:32:25;;;;;;;;;;;39.40;24.90;;;;;;5091630;28;19948;-96
2022/07/23 12:35:01;;;;;;;;;;;39.60;24.70;;;;;;5092154;28;19978;-96
2022/07/23 12:37:28;;;;;;;;;;;40.10;24.20;;;;;;5090606;28;19955;-96
2022/07/23 12:39:54;;;;;;;;;;;40.70;22.70;;;;;;5089002;28;19970;-97
2022/07/23 12:42:20;;;;;;;;;;;41.10;24.90;;;;;;5093535;28;19934;-96
2022/07/23 12:45:04;;;;;;;;;;;41.30;23.10;;;;;;5088991;28;19944;-96
2022/07/23 12:47:30;;;;;;;;;;;41.10;25.30;;;;;;5091748;28;19941;-96
2022/07/23 12:49:56;;;;;;;;;;;40.80;23.90;;;;;;5093334;28;19945;-96
2022/07/23 12:52:22;;;;;;;;;;;40.30;24.40;;;;;;5089730;28;19983;-96
2022/07/23 12:54:48;;;;;;;;;;;40.10;23.70;;;;;;5091700;28;20423;-96
2022/07/23 12:57:14;;;;;;;;;;;40.10;24.70;;;;;;5093565;28;19941;-96
2022/07/23 12:59:43;;;;;;;;;;;40.50;23.80;;;;;;5095009;28;19961;-96
2022/07/23 13:02:12;;;;;;;;;;;41.10;24.80;;;;;;5076702;28;19955;-96
2022/07/23 13:04:42;;;;;;;;;;;41.50;25.10;;;;;;5097422;28;19944;-97
2022/07/23 13:07:12;;;;;;;;;;;42.20;23.50;;;;;;5081757;28;19944;-96
2022/07/23 13:09:42;;;;;;;;;;;43.30;22.10;;;;;;5092458;28;19965;-97
2022/07/23 13:12:08;;;;;;;;;;;43.90;20.40;;;;;;5091799;28;19947;-96
2022/07/23 13:14:34;;;;;;;;;;;44.10;20.00;;;;;;5092174;28;19968;-96
2022/07/23 13:17:00;;;;;;;;;;;45.20;18.30;;;;;;5091383;28;19990;-97
2022/07/23 13:19:26;;;;;;;;;;;45.60;18.70;;;;;;5091868;28;19969;-96
2022/07/23 13:21:52;;;;;;;;;;;46.10;19.00;;;;;;5091729;28;19946;-96
2022/07/23 13:24:18;;;;;;;;;;;46.00;17.80;;;;;;5090268;28;19997;-96
2022/07/23 13:26:46;;;;;;;;;;;45.60;17.00;;;;;;5091288;28;19944;-96
2022/07/23 13:29:12;;;;;;;;;;;45.10;17.40;;;;;;5102433;28;20009;-96
2022/07/23 13:31:38;;;;;;;;;;;44.90;19.50;;;;;;5084418;28;19948;-96
2022/07/23 13:34:03;;;;;;;;;;;44.90;18.40;;;;;;5100944;28;20452;-96
2022/07/23 13:36:29;;;;;;;;;;;45.10;18.20;;;;;;5099526;28;20408;-96
2022/07/23 13:38:55;;;;;;;;;;;45.20;17.70;;;;;;5097535;28;20317;-96
2022/07/23 13:41:20;;;;;;;;;;;44.20;18.70;;;;;;5080029;28;19941;-96
2022/07/23 13:43:46;;;;;;;;;;;43.10;19.00;;;;;;5098241;28;19948;-96
2022/07/23 13:46:11;;;;;;;;;;;43.50;18.40;;;;;;5100046;28;19949;-96
2022/07/23 13:48:37;;;;;;;;;;;43.50;19.00;;;;;;5099434;28;19992;-96
2022/07/23 13:51:03;;;;;;;;;;;43.70;18.90;;;;;;5103764;28;19936;-96
2022/07/23 13:53:28;;;;;;;;;;;44.10;18.20;;;;;;5106911;28;19945;-96
2022/07/23 13:55:54;;;;;;;;;;;43.00;19.10;;;;;;5086378;28;19947;-96
2022/07/23 13:58:23;;;;;;;;;;;42.80;19.70;;;;;;5105122;28;20392;-96
2022/07/23 14:00:51;;;;;;;;;;;43.10;20.20;;;;;;5090869;28;19952;-96
2022/07/23 14:03:17;;;;;;;;;;;43.60;19.70;;;;;;5108191;28;19937;-96
2022/07/23 14:05:43;;;;;;;;;;;44.60;20.30;;;;;;5110956;28;19960;-96
2022/07/23 14:08:09;;;;;;;;;;;45.50;20.10;;;;;;5104771;28;19938;-96
2022/07/23 14:10:38;;;;;;;;;;;45.10;19.20;;;;;;5102530;28;19934;-96
2022/07/23 14:13:03;;;;;;;;;;;43.70;19.10;;;;;;5083085;28;19973;-96
2022/07/23 14:15:30;;;;;;;;;;;42.70;19.90;;;;;;5101645;28;19959;-96
2022/07/23 14:17:56;;;;;;;;;;;42.40;22.30;;;;;;5084304;28;20480;-96
2022/07/23 14:20:22;;;;;;;;;;;41.90;25.20;;;;;;5097924;28;19940;-96
2022/07/23 14:22:49;;;;;;;;;;;41.60;25.70;;;;;;5098789;28;19936;-96
2022/07/23 14:25:15;;;;;;;;;;;41.40;26.80;;;;;;5064914;22;19983;-96
2022/07/23 14:27:41;;;;;;;;;;;41.10;27.10;;;;;;5038720;28;19984;-96
2022/07/23 14:30:07;;;;;;;;;;;40.90;27.40;;;;;;5037314;28;19974;-96
2022/07/23 14:32:33;;;;;;;;;;;40.50;28.50;;;;;;5038562;28;19959;-96
2022/07/23 14:34:59;;;;;;;;;;;40.70;29.50;;;;;;5040959;28;19963;-96
2022/07/23 14:37:25;;;;;;;;;;;41.00;26.20;;;;;;5040159;28;19958;-96
2022/07/23 14:39:51;;;;;;;;;;;41.30;25.80;;;;;;5041762;28;19987;-96
2022/07/23 14:42:17;;;;;;;;;;;41.60;25.50;;;;;;5058572;28;20032;-96
2022/07/23 14:44:43;;;;;;;;;;;41.50;27.20;;;;;;5042787;28;19953;-96
2022/07/23 14:47:08;;;;;;;;;;;41.50;27.20;;;;;;5040709;28;20332;-96
2022/07/23 14:49:34;;;;;;;;;;;41.70;26.90;;;;;;5057326;28;20077;-96
2022/07/23 14:52:00;;;;;;;;;;;41.90;27.50;;;;;;5044765;28;20019;-96
2022/07/23 14:54:26;;;;;;;;;;;42.50;26.30;;;;;;5048726;28;19965;-96
2022/07/23 14:56:55;;;;;;;;;;;43.00;25.60;;;;;;5054110;28;19946;-96
2022/07/23 14:59:21;;;;;;;;;;;43.60;24.60;;;;;;5055124;28;19950;-96
2022/07/23 15:01:48;;;;;;;;;;;44.10;24.00;;;;;;5054113;28;19943;-96
2022/07/23 15:04:16;;;;;;;;;;;44.10;23.30;;;;;;5056396;28;19975;-96
2022/07/23 15:06:44;;;;;;;;;;;44.40;24.30;;;;;;5057229;28;19922;-96
2022/07/23 15:09:13;;;;;;;;;;;44.80;22.50;;;;;;5059049;28;19947;-96
2022/07/23 15:11:40;;;;;;;;;;;45.40;22.00;;;;;;5058415;28;19941;-96
2022/07/23 15:14:07;;;;;;;;;;;45.60;21.30;;;;;;5056097;28;20010;-96
2022/07/23 15:16:33;;;;;;;;;;;45.30;22.40;;;;;;5057877;28;19939;-96
2022/07/23 15:19:01;;;;;;;;;;;44.90;22.50;;;;;;5057442;28;19987;-96
2022/07/23 15:21:32;;;;;;;;;;;45.50;22.50;;;;;;5056955;28;19953;-96
2022/07/23 15:23:59;;;;;;;;;;;45.50;21.20;;;;;;5071687;28;19940;-97
2022/07/23 15:26:26;;;;;;;;;;;44.80;21.70;;;;;;5054646;28;19934;-96
2022/07/23 15:28:52;;;;;;;;;;;44.60;23.20;;;;;;5054717;28;19947;-96
2022/07/23 15:31:19;;;;;;;;;;;44.50;22.50;;;;;;5055690;28;19940;-96
2022/07/23 15:33:52;;;;;;;;;;;44.00;23.60;;;;;;5055816;28;19978;-96
2022/07/23 15:36:20;;;;;;;;;;;44.10;23.30;;;;;;5056202;28;20016;-96
2022/07/23 15:38:50;;;;;;;;;;;44.20;23.20;;;;;;5052832;28;19942;-97
2022/07/23 15:41:16;;;;;;;;;;;44.10;22.90;;;;;;5051958;28;19979;-97
2022/07/23 15:43:44;;;;;;;;;;;43.90;22.10;;;;;;5048605;28;19944;-96
2022/07/23 15:46:09;;;;;;;;;;;43.60;22.70;;;;;;5048054;28;19944;-96
2022/07/23 15:48:36;;;;;;;;;;;43.30;24.10;;;;;;5046480;28;20029;-96
2022/07/23 15:51:02;;;;;;;;;;;43.30;24.40;;;;;;5044267;28;19942;-96
2022/07/23 15:53:28;;;;;;;;;;;42.70;24.00;;;;;;5049981;28;19962;-96
2022/07/23 15:55:55;;;;;;;;;;;42.30;24.50;;;;;;5052168;28;19972;-96
2022/07/23 15:58:21;;;;;;;;;;;42.30;24.60;;;;;;5051723;28;19950;-96
2022/07/23 16:00:47;;;;;;;;;;;42.10;23.20;;;;;;5050407;28;20037;-96
2022/07/23 16:03:13;;;;;;;;;;;41.60;24.80;;;;;;5052723;28;19946;-96
2022/07/23 16:05:41;;;;;;;;;;;41.40;24.00;;;;;;5051627;28;20011;-96
2022/07/23 16:08:06;;;;;;;;;;;41.00;24.50;;;;;;5049242;28;19941;-96
2022/07/23 16:10:32;;;;;;;;;;;40.20;24.60;;;;;;5062476;28;19975;-96
2022/07/23 16:12:58;;;;;;;;;;;39.80;25.10;;;;;;5048650;28;19958;-96
2022/07/23 16:15:24;;;;;;;;;;;39.60;25.30;;;;;;5047618;28;19962;-96
2022/07/23 16:17:50;;;;;;;;;;;39.20;25.60;;;;;;5046146;28;19940;-96
2022/07/23 16:20:16;;;;;;;;;;;38.70;25.20;;;;;;5045437;28;20319;-96
2022/07/23 16:22:42;;;;;;;;;;;38.30;25.70;;;;;;5047349;28;19947;-96
2022/07/23 16:25:08;;;;;;;;;;;38.10;26.00;;;;;;5042363;28;20005;-96
2022/07/23 16:27:34;;;;;;;;;;;37.90;27.20;;;;;;5044302;28;19941;-96
2022/07/23 16:30:01;;;;;;;;;;;37.60;27.30;;;;;;5044372;28;19944;-96
2022/07/23 16:32:26;;;;;;;;;;;37.50;27.40;;;;;;5046185;28;19948;-96
2022/07/23 16:34:52;;;;;;;;;;;37.50;27.30;;;;;;5046973;28;19966;-96
2022/07/23 16:37:18;;;;;;;;;;;37.50;27.20;;;;;;5063532;28;19964;-96
2022/07/23 16:39:44;;;;;;;;;;;37.80;27.40;;;;;;5048543;28;19937;-96
2022/07/23 16:42:10;;;;;;;;;;;38.20;27.40;;;;;;5049859;28;19942;-96
2022/07/23 16:44:36;;;;;;;;;;;38.50;27.50;;;;;;5049607;28;19947;-96
2022/07/23 16:47:02;;;;;;;;;;;38.50;28.00;;;;;;5046651;28;19944;-96
2022/07/23 16:49:27;;;;;;;;;;;38.40;27.50;;;;;;5046909;28;19946;-96
2022/07/23 16:51:53;;;;;;;;;;;38.00;28.00;;;;;;5059836;28;19951;-96
2022/07/23 16:54:19;;;;;;;;;;;37.80;28.40;;;;;;5042531;28;19959;-96
2022/07/23 16:56:45;;;;;;;;;;;37.60;29.30;;;;;;5042192;28;19941;-96
2022/07/23 16:59:11;;;;;;;;;;;37.40;28.50;;;;;;5042495;28;19939;-96
2022/07/23 17:01:37;;;;;;;;;;;37.40;29.60;;;;;;5045462;28;19941;-96
2022/07/23 17:04:03;;;;;;;;;;;37.40;28.40;;;;;;5044251;28;19936;-96
2022/07/23 17:06:29;;;;;;;;;;;37.40;28.80;;;;;;5046524;28;19987;-96
2022/07/23 17:08:55;;;;;;;;;;;37.20;28.80;;;;;;5044784;28;19942;-96
2022/07/23 17:11:21;;;;;;;;;;;37.10;29.10;;;;;;5047465;28;20016;-96
2022/07/23 17:13:47;;;;;;;;;;;37.00;30.10;;;;;;5044346;28;19941;-96
2022/07/23 17:16:13;;;;;;;;;;;36.70;30.40;;;;;;5046090;28;19936;-96
2022/07/23 17:18:38;;;;;;;;;;;36.50;30.40;;;;;;5060645;28;19941;-96
2022/07/23 17:21:04;;;;;;;;;;;36.30;30.30;;;;;;5043021;28;19936;-96
2022/07/23 17:23:30;;;;;;;;;;;36.20;30.60;;;;;;5040051;28;19986;-96
2022/07/23 17:25:55;;;;;;;;;;;36.20;31.10;;;;;;5039124;28;20509;-96
2022/07/23 17:28:22;;;;;;;;;;;36.10;31.00;;;;;;5041042;28;19934;-96
2022/07/23 17:30:47;;;;;;;;;;;36.10;32.00;;;;;;5043855;28;19963;-96
2022/07/23 17:33:13;;;;;;;;;;;36.00;32.20;;;;;;5040634;28;20320;-96
2022/07/23 17:35:39;;;;;;;;;;;35.90;33.30;;;;;;5042962;28;20038;-96
2022/07/23 17:38:05;;;;;;;;;;;35.80;33.30;;;;;;5042248;28;20002;-96
2022/07/23 17:40:31;;;;;;;;;;;35.70;34.60;;;;;;5058411;28;19993;-96
2022/07/23 17:42:57;;;;;;;;;;;35.60;34.40;;;;;;5044554;28;19943;-96
2022/07/23 17:45:23;;;;;;;;;;;35.60;33.20;;;;;;5043520;28;19958;-96
2022/07/23 17:47:49;;;;;;;;;;;35.50;33.20;;;;;;5059567;28;19943;-96
2022/07/23 17:50:15;;;;;;;;;;;35.50;33.30;;;;;;5044428;28;20029;-96
2022/07/23 17:52:48;;;;;;;;;;;35.40;34.20;;;;;;5042133;28;19947;-96
2022/07/23 17:55:14;;;;;;;;;;;35.20;33.70;;;;;;5042172;28;19974;-96
2022/07/23 17:57:40;;;;;;;;;;;35.20;34.50;;;;;;5043513;28;20022;-96
2022/07/23 18:00:07;;;;;;;;;;;35.10;35.00;;;;;;5043882;28;19942;-96
2022/07/23 18:02:33;;;;;;;;;;;35.00;35.50;;;;;;5048693;28;19949;-96
2022/07/23 18:04:59;;;;;;;;;;;34.80;35.70;;;;;;5045130;28;19939;-96
2022/07/23 18:07:25;;;;;;;;;;;34.60;36.20;;;;;;5044216;28;19945;-96
2022/07/23 18:09:50;;;;;;;;;;;34.50;36.50;;;;;;5059670;28;19950;-97
2022/07/23 18:12:16;;;;;;;;;;;34.40;35.80;;;;;;5041984;28;19972;-96
2022/07/23 18:14:43;;;;;;;;;;;34.30;36.40;;;;;;5043278;28;19981;-96
2022/07/23 18:17:08;;;;;;;;;;;34.20;37.20;;;;;;5043244;28;19944;-96
2022/07/23 18:19:34;;;;;;;;;;;34.10;37.70;;;;;;5045604;28;19956;-96
2022/07/23 18:22:00;;;;;;;;;;;34.00;37.40;;;;;;5046525;28;19950;-96
2022/07/23 18:24:26;;;;;;;;;;;33.90;37.50;;;;;;5046956;28;19985;-96
2022/07/23 18:26:52;;;;;;;;;;;33.80;37.20;;;;;;5048113;28;19941;-96
2022/07/23 18:29:18;;;;;;;;;;;33.70;37.30;;;;;;5046828;28;19977;-96
2022/07/23 18:31:44;;;;;;;;;;;33.70;37.60;;;;;;5047749;28;19966;-96
2022/07/23 18:34:10;;;;;;;;;;;33.70;37.80;;;;;;5047363;28;20009;-96
2022/07/23 18:36:36;;;;;;;;;;;33.60;37.80;;;;;;5049310;28;19965;-96
2022/07/23 18:39:03;;;;;;;;;;;33.40;37.20;;;;;;5048025;28;19948;-96
2022/07/23 18:41:31;;;;;;;;;;;33.40;36.90;;;;;;5063223;28;20007;-96
2022/07/23 18:43:57;;;;;;;;;;;33.20;37.10;;;;;;5062080;28;19944;-96
2022/07/23 18:46:23;;;;;;;;;;;33.20;36.80;;;;;;5046015;28;19999;-96
2022/07/23 18:48:49;;;;;;;;;;;33.00;36.90;;;;;;5045556;28;19965;-96
2022/07/23 18:51:15;;;;;;;;;;;33.00;38.00;;;;;;5045245;28;19940;-96
2022/07/23 18:53:41;;;;;;;;;;;32.80;38.40;;;;;;5043043;28;19955;-96
2022/07/23 18:56:07;;;;;;;;;;;32.70;38.90;;;;;;5039119;28;19962;-96
2022/07/23 18:58:32;;;;;;;;;;;32.60;39.20;;;;;;5041105;28;19951;-96
2022/07/23 19:00:58;;;;;;;;;;;32.50;39.90;;;;;;5041407;28;19938;-96
2022/07/23 19:03:24;;;;;;;;;;;32.40;40.40;;;;;;5042027;28;19940;-96
2022/07/23 19:05:50;;;;;;;;;;;32.30;40.70;;;;;;5041586;28;19936;-96
2022/07/23 19:08:16;;;;;;;;;;;32.20;41.20;;;;;;5043287;28;19999;-96
2022/07/23 19:10:41;;;;;;;;;;;32.20;41.90;;;;;;5060561;28;19954;-97
2022/07/23 19:13:07;;;;;;;;;;;32.00;42.80;;;;;;5043335;28;20369;-96
2022/07/23 19:15:33;;;;;;;;;;;31.90;43.50;;;;;;5040126;28;20020;-96
2022/07/23 19:17:59;;;;;;;;;;;31.90;44.30;;;;;;5043122;28;19944;-96
2022/07/23 19:20:25;;;;;;;;;;;31.70;45.00;;;;;;5040961;28;19984;-96
2022/07/23 19:22:50;;;;;;;;;;;31.70;45.70;;;;;;5043075;28;19957;-96
2022/07/23 19:25:16;;;;;;;;;;;31.60;46.50;;;;;;5041435;28;20366;-96
2022/07/23 19:27:42;;;;;;;;;;;31.50;47.50;;;;;;5059575;28;19971;-96
2022/07/23 19:30:08;;;;;;;;;;;31.40;47.60;;;;;;5043181;28;19971;-96
2022/07/23 19:32:35;;;;;;;;;;;31.40;47.90;;;;;;5044962;28;20025;-96
2022/07/23 19:35:00;;;;;;;;;;;31.40;47.90;;;;;;5046818;28;19961;-96
2022/07/23 19:37:26;;;;;;;;;;;31.30;48.00;;;;;;5045815;28;19968;-96
2022/07/23 19:39:52;;;;;;;;;;;31.30;48.50;;;;;;5044374;28;19990;-96
2022/07/23 19:42:18;;;;;;;;;;;31.20;48.60;;;;;;5047085;28;19955;-96
2022/07/23 19:44:43;;;;;;;;;;;31.20;49.00;;;;;;5058975;28;19942;-96
2022/07/23 19:47:09;;;;;;;;;;;31.10;49.10;;;;;;5042189;28;19948;-96
2022/07/23 19:49:34;;;;;;;;;;;31.10;49.60;;;;;;5040610;28;19942;-96
2022/07/23 19:52:00;;;;;;;;;;;31.00;50.00;;;;;;5040749;28;20460;-96
2022/07/23 19:54:27;;;;;;;;;;;30.90;49.70;;;;;;5043105;28;20052;-96
2022/07/23 19:56:52;;;;;;;;;;;30.80;50.00;;;;;;5043828;28;19976;-96
2022/07/23 19:59:18;;;;;;;;;;;30.80;50.40;;;;;;5046461;28;19934;-96
2022/07/23 20:01:45;;;;;;;;;;;30.70;50.60;;;;;;5047737;28;19949;-96
2022/07/23 20:04:10;;;;;;;;;;;30.70;50.90;;;;;;5049402;28;19952;-96
2022/07/23 20:06:37;;;;;;;;;;;30.60;52.30;;;;;;5051102;28;19942;-96
2022/07/23 20:09:04;;;;;;;;;;;30.40;53.00;;;;;;5049689;28;19981;-96
2022/07/23 20:11:30;;;;;;;;;;;30.40;52.90;;;;;;5050206;28;19943;-96
2022/07/23 20:13:56;;;;;;;;;;;30.30;53.90;;;;;;5066348;28;19948;-96
2022/07/23 20:16:27;;;;;;;;;;;30.20;53.90;;;;;;5050068;28;19991;-96
2022/07/23 20:18:54;;;;;;;;;;;30.20;54.50;;;;;;5067639;28;19945;-96
2022/07/23 20:21:20;;;;;;;;;;;30.20;55.20;;;;;;5067799;28;19949;-96
2022/07/23 20:23:48;;;;;;;;;;;30.20;55.90;;;;;;5050505;28;19947;-96
2022/07/23 20:26:14;;;;;;;;;;;30.20;56.20;;;;;;5052965;28;20037;-96
2022/07/23 20:28:41;;;;;;;;;;;30.20;57.00;;;;;;5049668;28;19946;-96
2022/07/23 20:31:06;;;;;;;;;;;30.20;57.40;;;;;;5049322;28;20001;-96
2022/07/23 20:33:32;;;;;;;;;;;30.20;58.10;;;;;;5064873;28;19943;-96
2022/07/23 20:35:59;;;;;;;;;;;30.10;59.00;;;;;;5044353;28;19971;-96
2022/07/23 20:38:25;;;;;;;;;;;30.00;59.40;;;;;;5044918;28;19982;-96
2022/07/23 20:40:51;;;;;;;;;;;29.90;59.70;;;;;;5047633;28;19936;-96